Time;durP1;ratioP1;P1;durP2;ratioP2;P2;SDS_P1;SDS_P2;PMS_P1;PMS_P2;Temp;Humidity;BMP_temperature;BMP_pressure;BME280_temperature;BME280_humidity;BME280_pressure;Samples;Min_cycle;Max_cycle;Signal;HPM_P1;HPM_P2
2022/07/02 00:05:01;;;;;;;1.33;0.50;;;15.60;99.90;;;;;;20678159;28;20050;-82
2022/07/02 00:15:03;;;;;;;1.30;0.43;;;15.50;99.90;;;;;;20694241;28;20041;-82
2022/07/02 00:25:04;;;;;;;1.20;0.68;;;15.50;99.90;;;;;;20634774;28;20524;-82
2022/07/02 00:35:13;;;;;;;1.60;0.50;;;15.40;99.90;;;;;;20654308;28;20041;-82
2022/07/02 00:45:16;;;;;;;2.55;1.40;;;15.40;99.90;;;;;;20632838;28;20880;-82
2022/07/02 00:55:18;;;;;;;1.67;0.73;;;15.40;99.90;;;;;;20647761;28;20045;-82
2022/07/02 01:05:20;;;;;;;2.25;0.52;;;15.30;99.90;;;;;;20655944;28;20039;-82
2022/07/02 01:15:21;;;;;;;2.22;0.50;;;15.30;99.90;;;;;;20659231;28;20698;-82
2022/07/02 01:25:22;;;;;;;1.52;0.63;;;15.30;99.90;;;;;;20645845;28;20406;-85
2022/07/02 01:35:23;;;;;;;4.15;0.70;;;15.30;99.90;;;;;;20628913;28;20038;-82
2022/07/02 01:45:24;;;;;;;1.35;0.65;;;15.20;99.90;;;;;;20633354;28;20053;-82
2022/07/02 01:55:25;;;;;;;2.28;0.82;;;15.10;99.90;;;;;;20633847;28;20141;-81
2022/07/02 02:05:27;;;;;;;3.60;0.70;;;14.90;99.90;;;;;;20641808;28;20668;-82
2022/07/02 02:15:28;;;;;;;5.70;2.05;;;14.80;99.90;;;;;;20675858;28;20044;-81
2022/07/02 02:25:30;;;;;;;1.70;0.60;;;14.80;99.90;;;;;;20653314;28;20045;-81
2022/07/02 02:35:31;;;;;;;2.08;1.23;;;14.80;99.90;;;;;;20632993;28;20049;-81
2022/07/02 02:45:32;;;;;;;1.30;0.60;;;14.70;99.90;;;;;;20647159;28;20481;-82
2022/07/02 02:55:33;;;;;;;1.15;0.40;;;14.70;99.90;;;;;;20673726;28;20449;-82
2022/07/02 03:05:34;;;;;;;1.38;0.30;;;14.70;99.90;;;;;;20686639;28;20038;-81
2022/07/02 03:15:35;;;;;;;0.60;0.20;;;14.50;99.90;;;;;;20646444;28;20046;-81
2022/07/02 03:25:36;;;;;;;1.95;0.45;;;14.40;99.90;;;;;;20660059;28;20030;-82
2022/07/02 03:35:37;;;;;;;2.83;0.45;;;14.30;99.90;;;;;;20650935;28;20034;-82
2022/07/02 03:45:38;;;;;;;1.25;0.38;;;14.30;99.90;;;;;;20631178;28;20037;-82
2022/07/02 03:55:40;;;;;;;1.20;0.63;;;14.10;99.90;;;;;;20660927;28;20038;-81
2022/07/02 04:05:41;;;;;;;0.95;0.40;;;14.00;99.90;;;;;;20629963;28;20046;-81
2022/07/02 04:15:42;;;;;;;1.55;0.32;;;14.00;99.90;;;;;;20652254;28;20046;-84
2022/07/02 04:25:43;;;;;;;0.60;0.35;;;14.00;99.90;;;;;;20622911;28;20446;-84
2022/07/02 04:35:46;;;;;;;1.80;0.45;;;14.10;99.90;;;;;;20639492;28;20039;-84
2022/07/02 04:45:47;;;;;;;1.13;0.30;;;14.10;99.90;;;;;;20638923;28;20034;-84
2022/07/02 04:55:48;;;;;;;1.30;0.50;;;14.30;99.90;;;;;;20625869;28;20505;-84
2022/07/02 05:05:49;;;;;;;2.45;0.80;;;14.50;99.90;;;;;;20667155;28;20034;-84
2022/07/02 05:15:50;;;;;;;7.25;0.77;;;14.70;99.90;;;;;;20653077;28;20038;-84
2022/07/02 05:25:51;;;;;;;2.08;0.60;;;15.00;99.90;;;;;;20651432;28;20041;-84
2022/07/02 05:35:53;;;;;;;1.33;0.73;;;15.20;99.90;;;;;;20626858;28;20139;-84
2022/07/02 05:45:54;;;;;;;1.17;0.60;;;15.40;99.90;;;;;;20643132;28;20045;-82
2022/07/02 05:55:55;;;;;;;0.82;0.30;;;15.60;99.90;;;;;;20635812;28;20046;-81
2022/07/02 06:16:16;;;;;;;1.60;0.52;;;16.00;99.90;;;;;;20645997;28;20297;-81
2022/07/02 06:26:17;;;;;;;0.80;0.28;;;16.40;99.90;;;;;;20633789;28;20046;-82
2022/07/02 06:36:22;;;;;;;0.38;0.15;;;16.60;99.90;;;;;;20623367;28;20206;-81
2022/07/02 06:46:23;;;;;;;0.50;0.20;;;16.80;99.90;;;;;;20632569;28;20034;-81
2022/07/02 06:56:24;;;;;;;0.60;0.20;;;17.20;99.90;;;;;;20649959;28;20052;-80
2022/07/02 07:06:32;;;;;;;0.40;0.10;;;17.30;99.90;;;;;;20659546;28;20038;-80
2022/07/02 07:16:33;;;;;;;0.57;0.20;;;17.40;99.90;;;;;;20619711;28;20084;-81
2022/07/02 07:26:36;;;;;;;0.68;0.08;;;17.60;99.90;;;;;;20629138;28;20049;-79
2022/07/02 07:36:37;;;;;;;3.28;1.02;;;17.70;99.90;;;;;;20642695;28;20417;-80
2022/07/02 07:46:38;;;;;;;0.32;0.10;;;17.90;99.90;;;;;;20649776;28;20041;-80
2022/07/02 07:56:41;;;;;;;0.77;0.10;;;18.10;99.90;;;;;;20653735;28;20038;-79
2022/07/02 08:06:42;;;;;;;1.30;0.30;;;18.30;99.90;;;;;;20655174;28;20045;-80
2022/07/02 08:16:43;;;;;;;0.90;0.40;;;18.60;99.90;;;;;;20650936;28;20064;-80
2022/07/02 08:26:45;;;;;;;0.65;0.30;;;18.80;99.90;;;;;;20657877;28;20060;-80
2022/07/02 08:36:46;;;;;;;0.57;0.17;;;19.10;99.90;;;;;;20666130;28;20053;-78
2022/07/02 08:46:49;;;;;;;0.60;0.10;;;19.50;99.90;;;;;;20662945;28;20034;-79
2022/07/02 08:56:53;;;;;;;0.73;0.28;;;19.60;99.90;;;;;;20652628;28;20054;-79
2022/07/02 09:06:58;;;;;;;0.20;0.10;;;19.90;99.90;;;;;;20624412;28;20213;-79
2022/07/02 09:17:00;;;;;;;0.25;0.10;;;20.20;99.90;;;;;;20667367;28;20049;-79
2022/07/02 09:27:01;;;;;;;0.40;0.10;;;20.50;99.90;;;;;;20620090;28;20042;-79
2022/07/02 09:37:15;;;;;;;0.63;0.13;;;20.70;99.90;;;;;;20615094;28;20100;-80
2022/07/02 09:47:16;;;;;;;0.17;0.00;;;21.00;99.90;;;;;;20665678;28;21093;-80
2022/07/02 09:57:17;;;;;;;0.20;0.17;;;21.30;99.90;;;;;;20649634;28;20054;-80
2022/07/02 10:07:23;;;;;;;0.63;0.00;;;21.70;99.90;;;;;;20643393;28;20046;-80
2022/07/02 10:17:26;;;;;;;0.38;0.10;;;21.80;99.90;;;;;;20703749;28;20494;-80
2022/07/02 10:27:29;;;;;;;0.60;0.13;;;22.10;99.90;;;;;;20638831;28;22186;-81
2022/07/02 10:37:31;;;;;;;0.22;0.10;;;22.30;99.70;;;;;;20643366;28;20401;-81
2022/07/02 10:47:32;;;;;;;0.52;0.10;;;22.40;99.80;;;;;;20636860;28;20356;-80
2022/07/02 10:57:34;;;;;;;1.10;0.20;;;22.50;99.00;;;;;;20619037;28;20068;-80
2022/07/02 11:07:43;;;;;;;0.60;0.20;;;22.80;98.30;;;;;;20637533;28;88993;-80
2022/07/02 11:17:50;;;;;;;0.95;0.40;;;22.50;99.60;;;;;;20746624;28;20099;-81
2022/07/02 11:28:12;;;;;;;;;;;22.20;99.90;;;;;;20748232;28;20041;-79
2022/07/02 11:38:13;;;;;;;0.82;0.30;;;22.40;99.90;;;;;;20752323;28;21433;-79
2022/07/02 11:48:19;;;;;;;0.85;0.20;;;22.20;99.90;;;;;;20723495;28;20144;-79
2022/07/02 11:58:20;;;;;;;1.02;0.20;;;22.30;99.90;;;;;;20744161;28;20072;-79
2022/07/02 12:08:22;;;;;;;0.43;0.30;;;22.30;99.90;;;;;;20755505;28;20410;-79
2022/07/02 12:18:23;;;;;;;0.50;0.20;;;23.00;99.90;;;;;;20754306;28;20060;-79
2022/07/02 12:38:44;;;;;;;0.50;0.35;;;23.40;99.90;;;;;;20757697;28;20608;-79
2022/07/02 12:48:46;;;;;;;0.50;0.30;;;24.00;99.90;;;;;;20739890;28;20037;-79
2022/07/02 12:58:47;;;;;;;0.20;0.10;;;24.20;99.90;;;;;;20755055;28;20045;-79
2022/07/02 13:08:48;;;;;;;1.10;0.30;;;24.10;99.20;;;;;;20739608;28;20497;-79
2022/07/02 13:18:49;;;;;;;0.32;0.10;;;23.50;99.90;;;;;;20757655;28;20053;-79
2022/07/02 13:28:50;;;;;;;0.63;0.40;;;23.50;99.40;;;;;;20753247;28;20045;-79
2022/07/02 13:38:52;;;;;;;0.30;0.10;;;24.00;99.90;;;;;;20737287;28;20041;-79
2022/07/02 13:48:53;;;;;;;0.50;0.20;;;23.60;99.50;;;;;;20748298;28;20084;-79
2022/07/02 13:58:54;;;;;;;0.88;0.20;;;23.50;99.20;;;;;;20763484;28;20038;-79
2022/07/02 14:08:56;;;;;;;0.77;0.20;;;23.60;99.00;;;;;;20734973;28;20515;-80
2022/07/02 14:18:57;;;;;;;16.35;0.40;;;24.30;98.90;;;;;;20748437;28;20041;-79
2022/07/02 14:28:58;;;;;;;0.47;0.17;;;24.10;99.00;;;;;;20738709;28;20282;-80
2022/07/02 14:38:59;;;;;;;0.75;0.30;;;24.00;99.50;;;;;;20730016;28;20053;-80
2022/07/02 14:49:00;;;;;;;0.40;0.13;;;23.50;99.90;;;;;;20745475;28;20049;-79
2022/07/02 14:59:02;;;;;;;0.38;0.15;;;23.20;99.90;;;;;;20754827;28;20046;-79
2022/07/02 15:09:05;;;;;;;0.90;0.20;;;23.60;99.90;;;;;;20745395;28;20034;-79
2022/07/02 15:19:11;;;;;;;1.27;0.20;;;23.40;99.90;;;;;;20739998;28;20041;-79
2022/07/02 15:29:13;;;;;;;0.28;0.10;;;23.20;99.90;;;;;;20741631;28;20046;-79
2022/07/02 15:39:16;;;;;;;0.55;0.13;;;23.40;99.90;;;;;;20729767;28;20103;-79
2022/07/02 15:49:18;;;;;;;0.55;0.17;;;23.70;99.90;;;;;;20734190;28;20048;-79
2022/07/02 15:59:20;;;;;;;0.70;0.20;;;23.90;99.20;;;;;;20771757;28;20049;-78
2022/07/02 16:09:22;;;;;;;1.40;0.73;;;24.10;99.10;;;;;;20745613;28;20551;-79
2022/07/02 16:19:23;;;;;;;0.90;0.60;;;24.00;98.30;;;;;;20792722;28;20060;-79
2022/07/02 16:29:26;;;;;;;0.60;0.20;;;23.60;99.30;;;;;;20759457;28;20042;-79
2022/07/02 16:39:36;;;;;;;2.15;0.68;;;23.30;99.90;;;;;;20765929;28;20057;-79
2022/07/02 16:49:48;;;;;;;1.58;0.40;;;23.30;99.90;;;;;;20773930;28;20482;-80
2022/07/02 16:59:49;;;;;;;0.82;0.40;;;23.20;99.70;;;;;;20772267;28;20053;-79
2022/07/02 17:09:50;;;;;;;1.67;0.45;;;23.10;99.90;;;;;;20742189;28;20052;-79
2022/07/02 17:19:51;;;;;;;0.65;0.30;;;23.00;99.90;;;;;;20743919;28;20049;-80
2022/07/02 17:29:52;;;;;;;0.50;0.20;;;23.00;99.90;;;;;;20760322;28;20162;-80
2022/07/02 17:39:53;;;;;;;0.85;0.40;;;23.10;99.90;;;;;;20738329;28;20049;-79
2022/07/02 17:49:57;;;;;;;1.05;0.43;;;23.00;99.80;;;;;;20737884;28;20037;-79
2022/07/02 17:59:58;;;;;;;0.90;0.40;;;22.90;99.90;;;;;;20746846;28;20048;-80
2022/07/02 18:10:00;;;;;;;0.70;0.30;;;22.80;99.90;;;;;;20752165;28;20095;-79
2022/07/02 18:20:01;;;;;;;0.50;0.25;;;22.80;99.90;;;;;;20749611;28;20044;-79
2022/07/02 18:30:04;;;;;;;0.60;0.20;;;22.60;99.90;;;;;;20732827;28;20041;-79
2022/07/02 18:40:06;;;;;;;0.85;0.35;;;22.10;99.90;;;;;;20736185;28;20050;-80
2022/07/02 18:50:08;;;;;;;0.40;0.30;;;21.60;99.90;;;;;;20729202;28;20444;-79
2022/07/02 19:00:11;;;;;;;0.60;0.20;;;21.40;99.90;;;;;;20727830;28;20052;-80
2022/07/02 19:10:13;;;;;;;0.40;0.10;;;21.00;99.90;;;;;;20723453;28;20037;-80
2022/07/02 19:20:14;;;;;;;3.50;0.20;;;20.90;99.90;;;;;;20745381;28;20041;-80
2022/07/02 19:30:33;;;;;;;0.52;0.40;;;20.80;99.90;;;;;;20749802;28;20072;-80
2022/07/02 19:40:35;;;;;;;0.47;0.30;;;20.80;99.90;;;;;;20769040;28;20056;-80
2022/07/02 19:50:36;;;;;;;2.50;0.60;;;20.70;99.90;;;;;;20767266;28;20038;-80
2022/07/02 20:00:37;;;;;;;0.40;0.20;;;20.60;99.90;;;;;;20774077;28;20038;-79
2022/07/02 20:10:38;;;;;;;0.45;0.15;;;20.50;99.90;;;;;;20756287;28;20033;-79
2022/07/02 20:20:43;;;;;;;0.60;0.30;;;20.30;99.90;;;;;;20772667;28;20049;-80
2022/07/02 20:30:49;;;;;;;;;;;20.20;99.90;;;;;;20776406;28;20116;-80
2022/07/02 20:40:50;;;;;;;0.82;0.40;;;20.20;99.90;;;;;;20759004;28;19936;-80
2022/07/02 20:50:51;;;;;;;0.45;0.25;;;20.10;99.90;;;;;;20768347;28;20044;-80
2022/07/02 21:00:53;;;;;;;1.05;0.22;;;19.90;99.90;;;;;;20771931;28;20044;-80
2022/07/02 21:10:55;;;;;;;1.38;0.43;;;19.90;99.90;;;;;;20751185;28;20043;-80
2022/07/02 21:20:58;;;;;;;0.80;0.30;;;19.90;99.90;;;;;;20750827;28;20482;-80
2022/07/02 21:30:59;;;;;;;0.50;0.20;;;19.80;99.90;;;;;;20752891;28;20547;-79
2022/07/02 21:41:00;;;;;;;1.33;0.40;;;19.60;99.90;;;;;;20763517;28;20064;-80
2022/07/02 21:51:02;;;;;;;0.60;0.32;;;19.40;99.90;;;;;;20749789;28;20525;-80
2022/07/02 22:01:03;;;;;;;0.70;0.20;;;19.30;99.90;;;;;;20748129;28;20065;-80
2022/07/02 22:11:04;;;;;;;0.77;0.40;;;19.40;99.90;;;;;;20753092;28;20030;-80
2022/07/02 22:21:05;;;;;;;0.47;0.30;;;19.20;99.90;;;;;;20761753;28;20418;-80
2022/07/02 22:31:06;;;;;;;1.60;0.30;;;19.10;99.90;;;;;;20779783;28;20038;-80
2022/07/02 22:41:07;;;;;;;1.00;0.20;;;18.80;99.90;;;;;;20784994;28;20064;-80
2022/07/02 22:51:10;;;;;;;0.45;0.20;;;18.70;99.90;;;;;;20763276;28;20041;-80
2022/07/02 23:01:12;;;;;;;4.03;0.57;;;18.70;99.90;;;;;;20773222;28;20053;-80
2022/07/02 23:11:14;;;;;;;0.50;0.30;;;18.40;99.90;;;;;;20776653;28;20038;-80
2022/07/02 23:21:15;;;;;;;0.80;0.28;;;18.30;99.90;;;;;;20782295;28;20041;-80
2022/07/02 23:31:16;;;;;;;3.65;1.85;;;17.90;99.90;;;;;;20766011;28;20037;-81
2022/07/02 23:41:17;;;;;;;0.52;0.30;;;17.80;99.90;;;;;;20779261;28;20088;-80
2022/07/02 23:51:18;;;;;;;0.90;0.25;;;17.60;99.90;;;;;;20777109;28;20075;-80
